N7QME-2 messages


fromtotime message
N7QME-2 N7QME 05/03 22:52:12z Send another system phv 13.41 bv 13.39 bc 0.00 bp 0.0 tp 1512 rt -4037 SOC 86.0
N7QME-2 N7QME 05/03 22:10:27z Send another hum g 12. v 59. o .46 e 73 f 41 b 75 w 61 h 71 Stale 2
N7QME-2 N7QME 05/03 21:50:12z Send another temps g 65.5 v 60.0 o 81.8. e 62.1 f 38.0 b 59.7 w 69.2. h 60.4 75.0. Stale 2
N7QME-2 N7QME 05/03 21:32:27z Send another bms B2 13.44 23 0.0 63.3 64.2 0
N7QME-2 N7QME 05/03 21:11:17z Send another bms B1 13.39 16 0.0 63.1 64.8 97
N7QME-2 N7QME 05/03 20:52:47z Send another system phv 13.43 bv 13.41 bc 1.10 bp 14.8 tp 1500 rt -4049 SOC 87.1
N7QME-2 N7QME 05/03 20:11:12z Send another hum g 14 v 59. o .64 e 74 f 36 b 75. w 61 h 69. Stale 2
N7QME-2 N7QME 05/03 19:49:47z Send another temps g 64.9 v 60.0 o 71.8. e 61.7 f 38.4. b .60.4 w 65.7. h .61.6 75.0. Stale 2
N7QME-2 N7QME 05/03 19:31:59z Send another bms B2 13.46 24 1.3 63.3 64.2 0
N7QME-2 N7QME 05/03 19:13:22z Send another bms B1 13.41 19 0.1 63.0 64.4 97
N7QME-2 N7QME 05/03 18:55:28z Send another system phv 13.47 bv 13.44 bc 3.80 bp 51.1 tp 1406 rt -4141 SOC 88.1
N7QME-2 N7QME 05/03 18:16:07z Send another hum g 12 v 59. o .74 e .73 f 42. b 75 w 62 h 62. Stale 2
N7QME-2 N7QME 05/03 17:56:37z Send another temps g 64.9 v 60.0 o 64.9. e 61.7 f 38.8 b 61.6. w 64.4 h .67.0 75.0. Stale 2
N7QME-2 N7QME 05/03 17:38:52z Send another bms B2 13.44 23 2.0 63.3 64.4 0
N7QME-2 N7QME 05/03 17:20:12z Send another bms B1 13.38 18 0.0 63.0 64.8 97
N7QME-2 N7QME 05/03 17:01:08z Send another system phv 13.42 bv 13.41 bc 1.10 bp 14.8 tp 1266 rt -4279 SOC 87.1
N7QME-2 N7QME 05/03 02:43:02z Send another temps g 64.8 v 60.0 o 77.0 e 61.4 f 38.6 b 59.8 w 70.9 h 59.1 75.0. Stale 2
N7QME-2 N7QME 05/03 02:23:52z Send another bms B2 13.39 23 -1.5 63.5 64.6 0
N7QME-2 N7QME 05/03 02:04:37z Send another bms B1 13.35 18 0.0 63.0 64.6 96
N7QME-2 N7QME 05/03 01:46:52z Send another system phv 13.35 bv 13.38 bc 0.00 bp 0.0 tp 1138 rt -32 SOC 84.6
N7QME-2 N7QME 05/03 01:07:36z Send another hum g 14 v 59. o 57 e 71 f 50 b .74 w .55 h 72 Stale 2
N7QME-2 N7QME 05/03 00:46:17z Send another temps g 64.4. v 60.0 o 76.6 e 61.1 f 38.9 b 59.7 w 69.9. h 59.5 75.0. Stale 2 5
N7QME-2 N7QME 05/03 00:28:48z Send another bms B2 13.42 20 0.0 63.0 64.0 0
N7QME-2 N7QME 05/03 00:10:53z Send another bms B1 13.37 18 0.7 62.6 64.4 96
N7QME-2 N7QME 05/02 23:52:37z Send another system phv 13.35 bv 13.38 bc 0.00 bp 0.0 tp 1124 rt -46 SOC 85.2
N7QME-2 N7QME 05/02 23:12:28z Send another hum g 12 v 59. o .59 e 71. f 37 b 75 w 57 h 73 Stale 2
N7QME-2 N7QME 05/02 22:51:52z Send another temps g 63.6 v 60.0 o 73.6. e 60.3 f 39.3 b 58.4 w 67.5. h 58.2 75.0. Stale 2
N7QME-2 N7QME 05/02 22:31:07z Send another bms B2 13.42 22 0.0 62.8 63.9 0
N7QME-2 N7QME 05/02 22:12:18z Send another bms B1 13.38 18 0.0 62.4 64.0 97
N7QME-2 N7QME 05/02 21:51:03z Send another system phv 13.38 bv 13.41 bc 0.00 bp 0.0 tp 1105 rt -64 SOC 86.5
N7QME-2 N7QME 05/02 21:13:53z Send another hum g 12 v 59. o 70 e 69 f 50. b 74 w 58 h 73 Stale 2
N7QME-2 N7QME 05/02 20:52:18z Send another temps g 63.2 v 60.0 o 63.0. e 60.0 f 38.9 b 58.8 w 65.1. h 58.0 75.0. Stale 2
N7QME-2 N7QME 05/02 20:33:38z Send another bms B2 13.52 21 8.9 62.8 63.9 0
N7QME-2 N7QME 05/02 20:15:33z Send another bms B1 13.46 15 6.5 62.4 64.2 98
N7QME-2 N7QME 05/02 19:55:15z Send another system phv 13.46 bv 13.45 bc 5.80 bp 78.0 tp 831 rt -38 SOC 88.5
N7QME-2 N7QME 05/02 19:13:58z Send another hum g 10 v 59. o .72 e 68 f 44. b 73 w 58 h 72. Stale 2
N7QME-2 N7QME 05/02 18:54:13z Send another temps g 63.4 v 60.0 o 60.3 e 60.1 f 38.5 b 59.3. w 64.3 h 59.0 75.0. Stale 2
N7QME-2 N7QME 05/02 18:34:53z Send another bms B2 13.49 24 5.5 62.6 63.7 0
N7QME-2 N7QME 05/02 18:17:17z Send another bms B1 13.43 18 2.8 62.2 64.0 97
N7QME-2 N7QME 05/02 16:39:53z Send another bms B2 13.41 33 3.8 62.6 63.9 0
N7QME-2 N7QME 05/02 16:18:39z Send another bms B1 13.33 19 2.8 62.4 64.2 96
N7QME-2 N7QME 05/02 15:20:46z Send another hum g 10. v 59. o 76 e 66 f 45. b 74 w 59 h 73 Stale 2
N7QME-2 N7QME 05/02 15:03:27z Send another temps g 63.1 v 60.0 o 55.1. e 59.9 f 38.4 b 56.0 w 62.4 h 56.6 75.0. Stale 2
N7QME-2 N7QME 05/02 13:06:07z Send another temps g 63.0 v 60.0 o 54.4 e .59.8 f 38.2 b 56.3 w .62.7 h 56.8 75.0. Stale 2
N7QME-2 N7QME 05/02 12:25:27z Send another bms B1 13.24 19 0.0 63.1 64.8 95
N7QME-2 N7QME 05/02 12:07:23z Send another system phv 0.00 bv 13.27 bc 0.00 bp 0.0 tp 639 rt -416 SOC 77.0
N7QME-2 N7QME 05/02 11:27:38z Send another hum g 10. v 59. o 75. e .66 f 38. b 74 w 57 h 73 Stale 2
N7QME-2 N7QME 05/02 11:08:43z Send another temps g 63.6 v 60.0 o 54.1 e 60.4 f 39.0 b .56.6 w .63.3 h 57.2 75.0. Stale 2
N7QME-2 N7QME 05/02 10:49:53z Send another bms B2 13.29 40 0.0 63.3 64.6 0
N7QME-2 N7QME 05/02 10:31:58z Send another bms B1 13.24 19 0.0 63.3 65.1 95
N7QME-2 N7QME 05/02 10:10:27z Send another system phv 13.25 bv 13.27 bc 0.00 bp 0.0 tp 644 rt -411 SOC 77.3
N7QME-2 N7QME 05/02 09:11:43z Send another temps g 63.5 v 60.0 o .56.2 e 60.3 f .38.6 b 57.1 w .64.5 h 57.5 75.0. Stale 2
N7QME-2 N7QME 05/02 07:11:53z Send another temps g 63.6 v 60.0 o 58.1 e 60.4 f 38.8 b 57.7 w .65.9 h .58.0 75.0. Stale 2
N7QME-2 N7QME 05/02 06:51:33z Send another bms B2 13.31 28 -1.4 63.9 64.9 0
N7QME-2 N7QME 05/02 06:32:08z Send another bms B1 13.27 18 0.0 63.7 65.3 95
N7QME-2 N7QME 05/02 06:13:28z Send another system phv 0.00 bv 13.29 bc -1.50 bp -19.9 tp 741 rt -313 SOC 80.0
N7QME-2 N7QME 05/02 05:38:28z Send another hum g 13. v 59. o 59. e 69 f 41 b 75 w 54 h 73 Stale 2
N7QME-2 N7QME 05/02 05:18:14z Send another temps g 63.7 v 60.0 o .61.8 e 60.5 f 39.7. b 58.3 w .67.9 h .58.5 75.0. Stale 2
N7QME-2 N7QME 05/02 04:56:23z Send another bms B2 13.33 25 -1.8 63.9 65.1 0
N7QME-2 N7QME 05/02 04:37:39z Send another bms B1 13.28 18 0.0 63.7 65.1 95
N7QME-2 N7QME 05/02 04:17:39z Send another system phv 0.00 bv 13.31 bc -2.80 bp -37.3 tp 788 rt -267 SOC 81.7
N7QME-2 N7QME 05/02 03:37:38z Send another hum g 15. v 59. o 54. e 71 f 60. b 75. w 53 h 72 Stale 2
N7QME-2 N7QME 05/02 03:16:18z Send another temps g 64.1 v 60.0 o .69.1 e 60.8 f 38.4 b 58.3 w .70.4 h 58.0 75.0. Stale 2
N7QME-2 N7QME 05/02 02:54:56z Send another bms B2 13.39 23 -1.1 63.7 64.9 0
N7QME-2 N7QME 05/02 02:34:02z Send another bms B1 13.35 21 0.0 63.3 64.9 96
N7QME-2 N7QME 05/02 02:13:52z Send another system phv 0.00 bv 13.38 bc 0.00 bp 0.0 tp 864 rt -191 SOC 84.8
N7QME-2 N7QME 05/02 01:37:33z Send another hum g 13. v 59. o 48 e 72 f .34 b .74 w 52 h 73. Stale 2
N7QME-2 N7QME 05/02 01:19:58z Send another temps g 64.1 v 60.0 o .77.2 e 60.8 f 38.6 b 58.5 w 72.2. h 58.3 75.0. Stale 2
N7QME-2 N7QME 05/02 01:01:53z Send another bms B2 13.45 21 1.0 63.3 64.6 0
N7QME-2 N7QME 05/02 00:44:31z Send another bms B1 13.41 18 0.7 63.0 64.6 97
N7QME-2 N7QME 05/02 00:24:41z Send another system phv 0.00 bv 13.44 bc 3.80 bp 51.1 tp 831 rt -224 SOC 88.3
N7QME-2 N7QME 05/01 23:46:48z Send another hum g 15 v 59. o .46 e 70. f 38 b 74 w 53 h 72 Stale 2
N7QME-2 N7QME 05/01 23:28:58z Send another temps g 62.6. v 60.0 o 80.4. e 59.4 f 38.5 b 57.0 w 70.8. h 57.2 75.0. Stale 2
N7QME-2 N7QME 05/01 23:08:53z Send another bms B2 13.45 24 1.9 62.4 64.2 0
N7QME-2 N7QME 05/01 22:48:08z Send another bms B1 13.38 19 0.0 62.6 64.2 97
N7QME-2 N7QME 05/01 22:27:42z Send another system phv 0.00 bv 13.41 bc 0.00 bp 0.0 tp 695 rt -359 SOC 86.5
N7QME-2 N7QME 05/01 21:47:33z Send another hum g 13 v 59. o .59 e 70 f 42. b 73 w 55 h 72 Stale 2
N7QME-2 N7QME 05/01 21:27:18z Send another temps g 61.9 v 60.0 o 70.0. e 58.8 f 37.6 b .57.0 w 67.5. h 56.9 75.0. Stale 2
N7QME-2 N7QME 05/01 21:09:08z Send another bms B2 13.47 23 2.0 62.6 63.9 0
N7QME-2 N7QME 05/01 20:51:13z Send another bms B1 13.42 17 1.1 62.4 64.0 97
N7QME-2 N7QME 05/01 20:32:58z Send another system phv 0.00 bv 13.45 bc 4.50 bp 60.5 tp 549 rt -502 SOC 88.6
N7QME-2 N7QME 05/01 19:56:18z Send another hum g 15 v 59. o .68 e .68 f 39 b 73 w 56 h 71 Stale 2
N7QME-2 N7QME 05/01 19:38:08z Send another temps g 61.5 v 60.0 o 63.2. e 58.7 f 37.6 b 57.4 w 65.3 h .57.3 75.0. Stale 2
N7QME-2 N7QME 05/01 19:20:38z Send another bms B2 13.45 23 2.2 62.8 63.9 0
N7QME-2 N7QME 05/01 19:00:03z Send another bms B1 13.39 18 0.0 61.9 64.2 97
N7QME-2 N7QME 05/01 18:40:42z Send another system phv 0.00 bv 13.43 bc 3.80 bp 51.0 tp 401 rt -649 SOC 87.3
N7QME-2 N7QME 05/01 17:59:22z Send another hum g .13 v 59. o .70 e 69 f 42. b 73 w .56 h .70 Stale 2
N7QME-2 N7QME 05/01 17:38:33z Send another temps g 61.2 v 60.0 o 60.1. e 58.4 f 37.6 b 57.3. w 64.6. h 59.1. 75.0. Stale 2
N7QME-2 N7QME 05/01 17:18:28z Send another bms B2 13.46 27 3.0 62.6 63.9 0
N7QME-2 N7QME 05/01 16:58:53z Send another bms B1 13.42 17 3.6 62.6 64.2 97
N7QME-2 N7QME 05/01 16:40:08z Send another system phv 0.00 bv 13.41 bc 4.30 bp 57.6 tp 192 rt -857 SOC 86.0
N7QME-2 N7QME 05/01 16:02:18z Send another hum g 10 v 59. o 74 e 68 f 41. b 74. w 56 h 71 Stale 2
N7QME-2 N7QME 05/01 15:43:38z Send another temps g 60.8 v 60.0 o 55.2. e 57.9 f 37.3 b 55.7 w 63.0 h 55.9 75.0. Stale 2
N7QME-2 N7QME 05/01 15:24:33z Send another bms B2 13.34 40 2.0 63.0 64.0 0
N7QME-2 N7QME 05/01 15:02:58z Send another bms B1 13.26 20 0.0 62.8 64.4 95
N7QME-2 N7QME 05/01 14:44:58z Send another system phv 13.29 bv 13.27 bc 0.00 bp 0.0 tp 0 rt 0 SOC 77.5
N7QME-2 N7QME 05/01 14:08:18z Send another hum g 11 v 59. o 70 e 68 f 37 b 72 w 56 h 71 Stale 2
N7QME-2 N7QME 05/01 13:47:48z Send another temps g 61.2 v 60.0 o 52.6 e 58.2 f 38.1 b 55.7 w 63.2 h .56.3 75.0. Stale 2
N7QME-2 N7QME 05/01 13:28:08z Send another bms B2 13.28 39 0.0 63.1 64.0 0
N7QME-2 N7QME 05/01 13:09:53z Send another bms B1 13.24 21 0.0 63.0 64.6 95